Time;durP1;ratioP1;P1;durP2;ratioP2;P2;SDS_P1;SDS_P2;PMS_P1;PMS_P2;Temp;Humidity;BMP_temperature;BMP_pressure;BME280_temperature;BME280_humidity;BME280_pressure;Samples;Min_cycle;Max_cycle;Signal;HPM_P1;HPM_P2
2022/12/15 00:40:58;;;;;;;;;;;17.70;60.40;;;;;;4511459;31;20032;-72
2022/12/15 00:43:26;;;;;;;;;;;17.70;60.40;;;;;;4513169;31;20032;-72
2022/12/15 00:48:37;;;;;;;;;;;17.70;60.50;;;;;;4510392;31;20444;-72
2022/12/15 00:51:02;;;;;;;;;;;17.70;60.50;;;;;;4509779;31;20080;-72
2022/12/15 01:21:04;;;;;;;;;;;18.00;59.70;;;;;;4507034;31;20191;-72
2022/12/15 01:23:31;;;;;;;;;;;18.00;59.70;;;;;;4502577;31;20384;-72
2022/12/15 01:25:56;;;;;;;;;;;18.00;59.70;;;;;;4505893;31;20052;-72
2022/12/15 01:28:23;;;;;;;;;;;17.90;59.60;;;;;;4513282;31;20129;-72
2022/12/15 01:30:49;;;;;;;;;;;18.00;59.60;;;;;;4499816;31;20033;-72
2022/12/15 01:33:15;;;;;;;;;;;18.00;59.70;;;;;;4513214;31;20030;-72
2022/12/15 01:35:42;;;;;;;;;;;18.00;59.60;;;;;;4514075;31;20085;-72
2022/12/15 01:38:08;;;;;;;;;;;18.00;59.50;;;;;;4498929;31;20550;-72
2022/12/15 01:40:48;;;;;;;;;;;17.90;59.50;;;;;;4499152;31;20036;-72
2022/12/15 01:43:16;;;;;;;;;;;18.00;59.50;;;;;;4513735;31;20063;-72
2022/12/15 01:45:47;;;;;;;;;;;18.00;59.50;;;;;;4483480;31;20597;-72
2022/12/15 01:48:18;;;;;;;;;;;18.00;59.50;;;;;;4507598;31;20251;-72
2022/12/15 01:50:52;;;;;;;;;;;17.90;59.40;;;;;;4512914;31;20024;-72
2022/12/15 01:53:18;;;;;;;;;;;17.90;59.40;;;;;;4513127;31;20168;-72
2022/12/15 01:55:45;;;;;;;;;;;18.00;59.40;;;;;;4513507;31;20028;-72
2022/12/15 01:58:11;;;;;;;;;;;17.90;59.40;;;;;;4511630;31;20036;-72
2022/12/15 02:00:38;;;;;;;;;;;17.90;59.40;;;;;;4508936;31;20040;-71
2022/12/15 02:03:05;;;;;;;;;;;17.90;59.40;;;;;;4510334;31;20029;-72
2022/12/15 02:05:31;;;;;;;;;;;17.90;59.30;;;;;;4509182;31;20080;-72
2022/12/15 02:07:58;;;;;;;;;;;17.90;59.40;;;;;;4511925;31;20029;-72
2022/12/15 02:10:33;;;;;;;;;;;17.90;59.30;;;;;;4512492;31;20043;-72
2022/12/15 02:13:05;;;;;;;;;;;17.90;59.30;;;;;;4509881;31;20036;-72
2022/12/15 02:15:47;;;;;;;;;;;17.90;59.30;;;;;;4509945;31;20020;-72
2022/12/15 02:18:35;;;;;;;;;;;17.90;59.40;;;;;;4510396;31;20583;-72
2022/12/15 02:21:06;;;;;;;;;;;17.90;59.40;;;;;;4509012;31;20041;-72
2022/12/15 02:23:44;;;;;;;;;;;17.90;59.30;;;;;;4501960;31;20159;-72
2022/12/15 02:26:44;;;;;;;;;;;17.90;59.40;;;;;;4513132;31;20043;-72
2022/12/15 02:29:21;;;;;;;;;;;17.80;59.30;;;;;;4466187;32;20134;-72
2022/12/15 02:31:58;;;;;;;;;;;17.80;59.40;;;;;;4505103;31;20044;-72
2022/12/15 02:34:29;;;;;;;;;;;17.80;59.40;;;;;;4509199;31;20036;-72
2022/12/15 02:37:01;;;;;;;;;;;17.80;59.40;;;;;;4510112;31;20171;-72
2022/12/15 02:39:26;;;;;;;;;;;17.80;59.40;;;;;;4511617;31;20039;-72
2022/12/15 02:41:52;;;;;;;;;;;17.80;59.40;;;;;;4511163;31;20029;-72
2022/12/15 02:44:18;;;;;;;;;;;17.80;59.40;;;;;;4510112;31;20131;-72
2022/12/15 02:46:54;;;;;;;;;;;17.80;59.50;;;;;;4508638;31;20071;-72
2022/12/15 02:49:38;;;;;;;;;;;17.80;59.40;;;;;;4511359;31;20043;-72
2022/12/15 02:52:16;;;;;;;;;;;17.80;59.50;;;;;;4510855;31;20043;-72
2022/12/15 02:54:57;;;;;;;;;;;17.80;59.50;;;;;;4509049;31;20041;-72
2022/12/15 02:57:25;;;;;;;;;;;17.80;59.50;;;;;;4509995;31;20055;-72
2022/12/15 02:59:55;;;;;;;;;;;17.80;59.50;;;;;;4511857;31;20040;-72
2022/12/15 03:02:26;;;;;;;;;;;17.70;59.40;;;;;;4513994;31;20033;-72
2022/12/15 03:04:52;;;;;;;;;;;17.70;59.40;;;;;;4514761;31;20159;-72
2022/12/15 03:07:18;;;;;;;;;;;17.70;59.50;;;;;;4512758;31;20039;-72
2022/12/15 03:09:44;;;;;;;;;;;17.70;59.50;;;;;;4513505;31;20033;-73
2022/12/15 03:12:10;;;;;;;;;;;17.70;59.50;;;;;;4510489;31;20076;-72
2022/12/15 03:14:35;;;;;;;;;;;17.70;59.40;;;;;;4513968;31;20051;-72
2022/12/15 03:17:03;;;;;;;;;;;17.70;59.50;;;;;;4513217;31;20025;-72
2022/12/15 03:19:29;;;;;;;;;;;17.70;59.50;;;;;;4514110;31;20083;-72
2022/12/15 03:21:57;;;;;;;;;;;17.70;59.50;;;;;;4505957;31;20049;-72
2022/12/15 03:24:23;;;;;;;;;;;17.70;59.50;;;;;;4500726;31;20134;-72
2022/12/15 03:26:49;;;;;;;;;;;17.70;59.60;;;;;;4497332;31;20530;-72
2022/12/15 03:29:16;;;;;;;;;;;17.70;59.60;;;;;;4502148;31;20541;-72
2022/12/15 03:31:43;;;;;;;;;;;17.70;59.60;;;;;;4501743;31;20029;-72
2022/12/15 03:34:09;;;;;;;;;;;17.70;59.60;;;;;;4512836;31;20028;-72
2022/12/15 03:36:34;;;;;;;;;;;17.70;59.60;;;;;;4513911;31;20025;-73
2022/12/15 03:39:00;;;;;;;;;;;17.70;59.60;;;;;;4514121;31;20105;-72
2022/12/15 03:41:26;;;;;;;;;;;17.70;59.60;;;;;;4509877;31;20032;-72
2022/12/15 03:43:52;;;;;;;;;;;17.70;59.70;;;;;;4514900;31;20025;-72
2022/12/15 03:46:17;;;;;;;;;;;17.70;59.60;;;;;;4514686;31;20025;-72
2022/12/15 03:48:44;;;;;;;;;;;17.70;59.60;;;;;;4501230;31;20197;-72
2022/12/15 03:51:10;;;;;;;;;;;17.70;60.40;;;;;;4514807;31;20090;-72
2022/12/15 03:53:36;;;;;;;;;;;17.60;59.50;;;;;;4500482;31;20029;-72
2022/12/15 03:56:01;;;;;;;;;;;17.60;59.50;;;;;;4515279;31;20040;-72
2022/12/15 03:58:27;;;;;;;;;;;17.60;59.50;;;;;;4514652;31;20025;-72
2022/12/15 04:00:54;;;;;;;;;;;17.60;59.50;;;;;;4501212;31;20035;-72
2022/12/15 04:03:20;;;;;;;;;;;17.60;59.50;;;;;;4514458;31;20040;-72
2022/12/15 04:05:46;;;;;;;;;;;17.60;59.50;;;;;;4501153;31;20021;-72
2022/12/15 04:08:12;;;;;;;;;;;17.60;59.50;;;;;;4513990;31;20082;-72
2022/12/15 04:10:37;;;;;;;;;;;17.60;59.40;;;;;;4500630;31;20013;-72
2022/12/15 04:13:08;;;;;;;;;;;17.60;59.50;;;;;;4500653;31;20031;-72
2022/12/15 04:15:35;;;;;;;;;;;17.60;59.50;;;;;;4498540;31;20025;-72
2022/12/15 04:18:03;;;;;;;;;;;17.60;59.60;;;;;;4515078;31;20037;-72
2022/12/15 04:20:29;;;;;;;;;;;17.60;59.60;;;;;;4514062;31;20033;-72
2022/12/15 04:22:55;;;;;;;;;;;17.60;59.50;;;;;;4500567;31;20036;-72
2022/12/15 05:34:15;;;;;;;;;;;17.40;59.50;;;;;;4503080;31;20439;-72
2022/12/15 05:36:40;;;;;;;;;;;17.40;59.50;;;;;;4504985;31;20079;-72
2022/12/15 05:39:06;;;;;;;;;;;17.40;59.50;;;;;;4513702;31;20090;-72
2022/12/15 05:41:32;;;;;;;;;;;17.40;59.50;;;;;;4513038;31;20028;-72
2022/12/15 05:44:02;;;;;;;;;;;17.40;59.50;;;;;;4505570;31;20064;-72
2022/12/15 05:46:28;;;;;;;;;;;17.40;59.50;;;;;;4513060;31;20586;-72
2022/12/15 05:48:53;;;;;;;;;;;17.40;59.40;;;;;;4513564;31;20143;-72
2022/12/15 05:51:20;;;;;;;;;;;17.40;59.40;;;;;;4499132;31;20126;-72
2022/12/15 05:53:46;;;;;;;;;;;17.40;59.40;;;;;;4512973;31;20162;-72
2022/12/15 05:56:13;;;;;;;;;;;17.40;59.40;;;;;;4499416;31;20035;-72
2022/12/15 05:58:39;;;;;;;;;;;17.40;59.40;;;;;;4512865;31;20229;-72
2022/12/15 06:01:10;;;;;;;;;;;17.40;59.40;;;;;;4513642;31;20044;-72
2022/12/15 06:03:39;;;;;;;;;;;17.40;59.40;;;;;;4501990;31;20032;-72
2022/12/15 06:06:05;;;;;;;;;;;17.40;59.40;;;;;;4513364;31;20032;-72
2022/12/15 06:08:33;;;;;;;;;;;17.40;59.40;;;;;;4513192;31;20021;-71
2022/12/15 06:10:59;;;;;;;;;;;17.40;59.40;;;;;;4512878;31;20033;-72
2022/12/15 06:13:25;;;;;;;;;;;17.40;59.40;;;;;;4513725;31;20041;-72
2022/12/15 06:15:58;;;;;;;;;;;17.40;59.40;;;;;;4498492;31;20028;-72
2022/12/15 06:18:34;;;;;;;;;;;17.40;59.40;;;;;;4513598;31;20064;-72
2022/12/15 06:21:07;;;;;;;;;;;17.40;59.40;;;;;;4512774;31;20044;-72
2022/12/15 06:23:34;;;;;;;;;;;17.40;59.40;;;;;;4509242;31;20362;-73
2022/12/15 06:26:07;;;;;;;;;;;17.40;59.40;;;;;;4513522;31;20073;-73
2022/12/15 06:28:32;;;;;;;;;;;17.40;59.40;;;;;;4512719;31;20085;-72
2022/12/15 06:31:00;;;;;;;;;;;17.40;59.40;;;;;;4499904;31;20016;-72
2022/12/15 06:33:27;;;;;;;;;;;17.40;59.40;;;;;;4516052;31;20013;-72
2022/12/15 06:35:53;;;;;;;;;;;17.40;59.40;;;;;;4516448;31;20021;-72
2022/12/15 06:38:19;;;;;;;;;;;17.40;59.30;;;;;;4516227;31;20598;-72
2022/12/15 06:40:45;;;;;;;;;;;17.40;59.40;;;;;;4501499;31;20033;-72
2022/12/15 06:43:11;;;;;;;;;;;17.40;59.30;;;;;;4505559;31;20036;-72
2022/12/15 06:45:36;;;;;;;;;;;17.40;59.20;;;;;;4515687;31;20670;-72
2022/12/15 06:48:03;;;;;;;;;;;17.40;59.20;;;;;;4516412;31;20025;-73
2022/12/15 06:50:28;;;;;;;;;;;17.40;59.20;;;;;;4515719;31;20033;-72
2022/12/15 06:52:57;;;;;;;;;;;17.40;59.20;;;;;;4501819;31;20028;-72
2022/12/15 06:55:23;;;;;;;;;;;17.40;59.10;;;;;;4515928;31;20086;-73
2022/12/15 06:57:49;;;;;;;;;;;17.40;59.10;;;;;;4501466;31;20179;-72
2022/12/15 07:00:14;;;;;;;;;;;17.40;59.10;;;;;;4516143;31;20029;-72
2022/12/15 07:02:41;;;;;;;;;;;17.40;59.10;;;;;;4501398;31;20029;-72
2022/12/15 07:05:08;;;;;;;;;;;17.40;59.10;;;;;;4501976;31;20031;-72
2022/12/15 07:07:33;;;;;;;;;;;17.40;59.10;;;;;;4501341;31;20117;-72
2022/12/15 07:09:59;;;;;;;;;;;17.40;59.10;;;;;;4515784;31;20032;-72
2022/12/15 07:12:25;;;;;;;;;;;17.40;59.10;;;;;;4515524;31;20012;-72
2022/12/15 07:14:51;;;;;;;;;;;17.40;60.00;;;;;;4515619;31;20816;-72
2022/12/15 07:17:17;;;;;;;;;;;17.40;59.10;;;;;;4515759;31;20039;-72
2022/12/15 07:19:46;;;;;;;;;;;17.40;59.10;;;;;;4515259;31;20028;-72
2022/12/15 07:22:12;;;;;;;;;;;17.40;59.10;;;;;;4501683;31;20021;-72
2022/12/15 07:24:38;;;;;;;;;;;17.40;59.10;;;;;;4515007;31;20133;-73
2022/12/15 07:27:03;;;;;;;;;;;17.40;59.10;;;;;;4501443;31;20138;-73
2022/12/15 07:29:29;;;;;;;;;;;17.40;59.10;;;;;;4500951;31;20023;-72
2022/12/15 07:31:55;;;;;;;;;;;17.40;59.10;;;;;;4515366;31;20017;-72
2022/12/15 07:34:21;;;;;;;;;;;17.40;59.10;;;;;;4515447;31;20101;-72
2022/12/15 07:36:47;;;;;;;;;;;17.40;59.10;;;;;;4515070;31;20033;-72
2022/12/15 07:39:12;;;;;;;;;;;17.40;59.10;;;;;;4515591;31;20017;-72
2022/12/15 07:41:39;;;;;;;;;;;17.40;59.00;;;;;;4493475;31;20016;-72
2022/12/15 07:44:05;;;;;;;;;;;17.40;59.00;;;;;;4514819;31;20555;-72
2022/12/15 07:46:37;;;;;;;;;;;17.40;59.00;;;;;;4514909;31;20033;-72
2022/12/15 07:49:03;;;;;;;;;;;17.50;59.00;;;;;;4515311;31;20017;-72
2022/12/15 07:51:28;;;;;;;;;;;17.50;59.00;;;;;;4500822;31;20013;-72
2022/12/15 07:53:55;;;;;;;;;;;17.50;59.00;;;;;;4514543;31;20453;-72
2022/12/15 07:56:21;;;;;;;;;;;17.50;59.00;;;;;;4507531;31;20028;-73
2022/12/15 07:58:47;;;;;;;;;;;17.40;59.10;;;;;;4514332;31;20102;-71
2022/12/15 08:01:14;;;;;;;;;;;17.40;59.20;;;;;;4514806;31;20024;-72
2022/12/15 08:03:40;;;;;;;;;;;17.40;60.20;;;;;;4514564;31;20182;-72
2022/12/15 08:06:10;;;;;;;;;;;17.40;60.00;;;;;;4514741;31;20036;-71
2022/12/15 08:08:36;;;;;;;;;;;17.40;60.00;;;;;;4514427;31;20040;-70
2022/12/15 08:11:03;;;;;;;;;;;17.40;59.70;;;;;;4513317;31;20537;-69
2022/12/15 08:13:29;;;;;;;;;;;17.40;59.60;;;;;;4514907;31;20078;-69
2022/12/15 08:15:54;;;;;;;;;;;17.40;59.40;;;;;;4514396;31;20032;-69
2022/12/15 08:18:20;;;;;;;;;;;17.50;59.30;;;;;;4514746;31;20028;-69
2022/12/15 08:20:46;;;;;;;;;;;17.50;59.20;;;;;;4513131;31;20450;-69
2022/12/15 08:23:15;;;;;;;;;;;17.70;59.10;;;;;;4514455;31;20059;-69
2022/12/15 08:25:41;;;;;;;;;;;17.70;58.80;;;;;;4513563;31;20036;-68
2022/12/15 08:28:07;;;;;;;;;;;17.80;58.50;;;;;;4514167;31;20033;-69
2022/12/15 08:30:35;;;;;;;;;;;18.00;58.20;;;;;;4514728;31;20080;-69
2022/12/15 08:33:02;;;;;;;;;;;18.10;57.90;;;;;;4514007;31;20033;-69
2022/12/15 08:35:28;;;;;;;;;;;18.20;57.60;;;;;;4514651;31;20039;-69
2022/12/15 08:37:54;;;;;;;;;;;18.40;57.40;;;;;;4512966;31;20113;-69
2022/12/15 08:40:19;;;;;;;;;;;18.40;57.00;;;;;;4512765;31;20025;-69
2022/12/15 08:42:45;;;;;;;;;;;18.60;56.70;;;;;;4509594;31;20021;-69
2022/12/15 08:45:11;;;;;;;;;;;18.70;56.50;;;;;;4497021;31;20029;-69
2022/12/15 08:47:54;;;;;;;;;;;18.80;56.20;;;;;;4498545;31;20049;-68
2022/12/15 08:50:20;;;;;;;;;;;18.90;55.90;;;;;;4512013;31;20090;-69
2022/12/15 08:52:46;;;;;;;;;;;19.00;55.60;;;;;;4512150;31;20259;-69
2022/12/15 08:55:13;;;;;;;;;;;19.10;55.50;;;;;;4510559;31;20053;-69
2022/12/15 08:57:39;;;;;;;;;;;19.10;55.50;;;;;;4513244;31;20009;-69
2022/12/15 09:00:05;;;;;;;;;;;19.10;55.50;;;;;;4510420;31;20165;-70
2022/12/15 09:02:31;;;;;;;;;;;19.10;55.60;;;;;;4511147;31;20037;-70
2022/12/15 09:04:57;;;;;;;;;;;19.10;55.80;;;;;;4509669;31;20364;-70
2022/12/15 09:07:23;;;;;;;;;;;19.00;55.90;;;;;;4505118;31;20021;-69
2022/12/15 09:09:48;;;;;;;;;;;18.90;56.30;;;;;;4512893;31;20036;-69
2022/12/15 09:12:14;;;;;;;;;;;18.80;56.50;;;;;;4510866;31;20041;-70
2022/12/15 09:14:40;;;;;;;;;;;18.70;56.80;;;;;;4513425;31;20467;-69
2022/12/15 09:17:05;;;;;;;;;;;18.60;57.20;;;;;;4509463;31;20064;-69
2022/12/15 09:19:31;;;;;;;;;;;18.60;57.50;;;;;;4498678;31;20102;-69
2022/12/15 09:21:58;;;;;;;;;;;18.50;57.80;;;;;;4510123;31;20029;-69
2022/12/15 09:24:24;;;;;;;;;;;18.40;58.10;;;;;;4507391;31;20033;-69
2022/12/15 09:26:50;;;;;;;;;;;18.40;58.00;;;;;;4503903;31;20135;-68
2022/12/15 09:29:16;;;;;;;;;;;18.40;58.00;;;;;;4510445;31;20040;-69
2022/12/15 09:31:43;;;;;;;;;;;18.50;58.10;;;;;;4511107;31;20589;-69
2022/12/15 09:34:11;;;;;;;;;;;18.50;58.00;;;;;;4510142;31;20044;-68
2022/12/15 09:36:42;;;;;;;;;;;18.70;58.00;;;;;;4504040;31;20022;-68
2022/12/15 09:39:15;;;;;;;;;;;18.70;57.80;;;;;;4501679;31;20029;-68
2022/12/15 09:41:43;;;;;;;;;;;18.70;57.50;;;;;;4506461;31;20028;-69
2022/12/15 09:44:08;;;;;;;;;;;18.80;57.40;;;;;;4502768;31;20130;-69
2022/12/15 09:46:41;;;;;;;;;;;18.90;57.20;;;;;;4497279;31;20021;-68
2022/12/15 09:49:13;;;;;;;;;;;19.10;57.10;;;;;;4497565;31;20025;-69
2022/12/15 09:51:43;;;;;;;;;;;19.20;57.00;;;;;;4497542;31;20037;-68
2022/12/15 09:54:10;;;;;;;;;;;19.30;56.90;;;;;;4496835;31;20033;-69
2022/12/15 09:56:45;;;;;;;;;;;19.40;56.80;;;;;;4497920;31;20013;-69
2022/12/15 09:59:14;;;;;;;;;;;19.50;56.80;;;;;;4497072;31;20032;-69
2022/12/15 10:01:43;;;;;;;;;;;19.50;56.80;;;;;;4496329;31;20021;-69
2022/12/15 10:04:08;;;;;;;;;;;19.50;56.80;;;;;;4497518;31;20025;-69
2022/12/15 10:06:54;;;;;;;;;;;19.60;56.80;;;;;;4496445;31;20032;-68
2022/12/15 10:09:37;;;;;;;;;;;19.60;56.70;;;;;;4505604;31;20036;-69
2022/12/15 10:12:08;;;;;;;;;;;19.70;56.70;;;;;;4498456;31;20098;-69
2022/12/15 10:14:34;;;;;;;;;;;19.70;56.60;;;;;;4513423;31;20043;-71
2022/12/15 10:17:05;;;;;;;;;;;19.70;56.60;;;;;;4513150;31;20021;-70
2022/12/15 10:19:49;;;;;;;;;;;19.80;56.70;;;;;;4497482;31;20137;-70
2022/12/15 10:22:18;;;;;;;;;;;19.80;56.70;;;;;;4513217;31;20043;-71
2022/12/15 10:24:44;;;;;;;;;;;19.80;56.70;;;;;;4512332;31;20035;-69
2022/12/15 10:27:29;;;;;;;;;;;19.90;56.70;;;;;;4513017;31;20021;-69
2022/12/15 10:30:08;;;;;;;;;;;19.90;56.70;;;;;;4512561;31;20025;-68
2022/12/15 10:32:46;;;;;;;;;;;19.90;56.60;;;;;;4509721;31;20139;-69
2022/12/15 10:35:24;;;;;;;;;;;19.90;56.60;;;;;;4511935;31;20464;-69
2022/12/15 10:37:50;;;;;;;;;;;19.90;56.60;;;;;;4510163;31;20229;-69
2022/12/15 10:40:17;;;;;;;;;;;19.90;56.60;;;;;;4512338;31;20037;-69
2022/12/15 10:42:47;;;;;;;;;;;19.90;56.50;;;;;;4511290;31;20024;-70
2022/12/15 10:45:30;;;;;;;;;;;19.90;56.60;;;;;;4508541;31;20043;-70
2022/12/15 10:47:57;;;;;;;;;;;19.90;56.60;;;;;;4510815;31;20445;-70
2022/12/15 10:50:24;;;;;;;;;;;19.90;56.70;;;;;;4509126;31;20575;-70
2022/12/15 10:52:49;;;;;;;;;;;19.90;56.60;;;;;;4507328;31;20091;-71
2022/12/15 10:55:27;;;;;;;;;;;19.90;56.60;;;;;;4506276;31;20624;-70
2022/12/15 10:57:58;;;;;;;;;;;19.90;56.60;;;;;;4503979;31;20051;-69
2022/12/15 11:00:29;;;;;;;;;;;20.00;56.60;;;;;;4509525;31;20041;-69
2022/12/15 11:02:55;;;;;;;;;;;20.00;56.50;;;;;;4509248;31;20024;-70
2022/12/15 11:05:21;;;;;;;;;;;20.10;56.40;;;;;;4510765;31;20040;-70
2022/12/15 11:07:48;;;;;;;;;;;20.10;56.40;;;;;;4483874;31;20025;-71
2022/12/15 11:10:25;;;;;;;;;;;20.20;56.20;;;;;;4509225;31;20056;-69
2022/12/15 11:12:56;;;;;;;;;;;20.20;56.10;;;;;;4511349;31;20036;-71
2022/12/15 11:15:22;;;;;;;;;;;20.20;56.10;;;;;;4509739;31;20092;-71
2022/12/15 11:18:06;;;;;;;;;;;20.30;56.00;;;;;;4509404;31;20147;-70
2022/12/15 11:20:37;;;;;;;;;;;20.30;56.00;;;;;;4505648;31;20041;-70
2022/12/15 11:23:18;;;;;;;;;;;20.30;56.00;;;;;;4503503;31;20149;-70
2022/12/15 11:25:53;;;;;;;;;;;20.30;55.90;;;;;;4510629;31;20494;-69
2022/12/15 11:28:21;;;;;;;;;;;20.40;55.90;;;;;;4509553;31;20025;-70
2022/12/15 11:30:58;;;;;;;;;;;20.40;55.90;;;;;;4514063;31;20425;-70
2022/12/15 11:33:24;;;;;;;;;;;20.40;55.90;;;;;;4514215;31;20040;-70
2022/12/15 11:36:06;;;;;;;;;;;20.40;55.80;;;;;;4511438;31;20017;-69
2022/12/15 11:38:51;;;;;;;;;;;20.40;55.80;;;;;;4512478;31;20041;-69
2022/12/15 11:41:35;;;;;;;;;;;20.40;55.70;;;;;;4512917;31;20024;-69
2022/12/15 11:44:10;;;;;;;;;;;20.40;55.60;;;;;;4513308;31;20036;-68
2022/12/15 11:46:40;;;;;;;;;;;20.50;55.60;;;;;;4511905;31;20139;-70
2022/12/15 11:49:11;;;;;;;;;;;20.50;55.60;;;;;;4512765;31;20044;-70
2022/12/15 11:51:57;;;;;;;;;;;20.50;55.50;;;;;;4511928;31;20035;-69
2022/12/15 11:54:28;;;;;;;;;;;20.50;55.40;;;;;;4511802;31;20737;-70
2022/12/15 11:56:54;;;;;;;;;;;20.50;55.40;;;;;;4512969;31;20217;-70
2022/12/15 11:59:36;;;;;;;;;;;20.60;55.40;;;;;;4510342;31;20209;-69
2022/12/15 12:02:19;;;;;;;;;;;20.60;55.40;;;;;;4512079;31;20060;-69
2022/12/15 12:04:56;;;;;;;;;;;20.60;55.40;;;;;;4507041;31;20033;-68
2022/12/15 12:07:42;;;;;;;;;;;20.60;55.40;;;;;;4509376;31;20032;-69
2022/12/15 12:10:23;;;;;;;;;;;20.60;55.40;;;;;;4499254;31;20217;-69
2022/12/15 12:12:58;;;;;;;;;;;20.60;55.40;;;;;;4510381;31;20151;-69
2022/12/15 12:15:26;;;;;;;;;;;20.60;55.40;;;;;;4509116;31;20067;-69
2022/12/15 12:18:01;;;;;;;;;;;20.70;55.40;;;;;;4513093;31;20486;-69
2022/12/15 12:20:47;;;;;;;;;;;20.70;55.60;;;;;;4510388;31;20036;-69
2022/12/15 12:23:19;;;;;;;;;;;20.70;55.30;;;;;;4477293;31;20349;-69
2022/12/15 12:25:59;;;;;;;;;;;20.70;55.20;;;;;;4506642;31;20042;-73
2022/12/15 12:28:30;;;;;;;;;;;20.70;55.20;;;;;;4505805;31;20084;-73
2022/12/15 12:30:58;;;;;;;;;;;20.80;55.20;;;;;;4505271;31;20174;-70
2022/12/15 12:33:31;;;;;;;;;;;20.80;55.10;;;;;;4500408;31;20025;-69
2022/12/15 12:36:11;;;;;;;;;;;20.80;55.10;;;;;;4504357;31;20139;-69
2022/12/15 12:42:05;;;;;;;;;;;20.90;55.00;;;;;;5162795;26;20070;-72
2022/12/15 12:44:33;;;;;;;;;;;20.80;54.90;;;;;;4448398;32;19971;-72
2022/12/15 12:47:05;;;;;;;;;;;20.80;54.80;;;;;;4454473;32;20425;-75
2022/12/15 12:49:43;;;;;;;;;;;20.80;54.80;;;;;;4461966;32;20319;-75
2022/12/15 12:52:37;;;;;;;;;;;20.80;54.80;;;;;;4460823;32;20098;-73
2022/12/15 12:55:20;;;;;;;;;;;20.90;54.80;;;;;;4436514;32;19970;-74
2022/12/15 12:57:46;;;;;;;;;;;20.90;54.80;;;;;;4438990;32;20002;-67
2022/12/15 13:00:18;;;;;;;;;;;20.90;54.80;;;;;;4460705;32;19982;-74
2022/12/15 13:02:56;;;;;;;;;;;20.90;54.80;;;;;;4460241;32;20018;-74
2022/12/15 13:05:25;;;;;;;;;;;20.90;54.80;;;;;;4460541;32;20509;-74
2022/12/15 13:07:54;;;;;;;;;;;20.90;54.80;;;;;;4458416;32;20574;-75
2022/12/15 13:10:20;;;;;;;;;;;20.90;54.70;;;;;;4458363;32;19982;-75
2022/12/15 13:12:53;;;;;;;;;;;20.90;54.70;;;;;;4456875;32;20044;-75
2022/12/15 13:15:34;;;;;;;;;;;21.00;54.80;;;;;;4458641;32;19994;-74
2022/12/15 13:18:17;;;;;;;;;;;21.00;54.70;;;;;;4459390;32;19994;-75
2022/12/15 13:20:44;;;;;;;;;;;21.00;54.80;;;;;;4445634;32;20040;-75
2022/12/15 13:23:22;;;;;;;;;;;21.00;54.70;;;;;;4459581;32;19988;-75
2022/12/15 13:25:52;;;;;;;;;;;21.00;54.70;;;;;;4457139;32;19977;-75
2022/12/15 13:28:39;;;;;;;;;;;21.00;54.70;;;;;;4458058;32;20358;-74
2022/12/15 13:31:17;;;;;;;;;;;21.10;54.70;;;;;;4459446;32;20112;-75
2022/12/15 13:33:49;;;;;;;;;;;21.10;54.70;;;;;;4458854;32;20120;-74
2022/12/15 13:36:34;;;;;;;;;;;21.10;54.70;;;;;;4454376;32;19989;-74
2022/12/15 13:39:00;;;;;;;;;;;21.10;54.70;;;;;;4442276;32;20080;-74
2022/12/15 13:41:25;;;;;;;;;;;21.10;54.70;;;;;;4443183;32;20523;-74
2022/12/15 13:43:52;;;;;;;;;;;21.10;54.70;;;;;;4456071;32;19982;-74
2022/12/15 13:46:23;;;;;;;;;;;21.10;54.70;;;;;;4459469;32;19986;-74
2022/12/15 13:49:09;;;;;;;;;;;21.10;54.60;;;;;;4459114;32;19997;-75
2022/12/15 13:51:42;;;;;;;;;;;21.20;54.60;;;;;;4449653;32;19985;-75
2022/12/15 13:54:23;;;;;;;;;;;21.20;54.60;;;;;;4458432;32;20029;-74
2022/12/15 13:56:49;;;;;;;;;;;21.20;54.60;;;;;;4458726;32;19986;-74
2022/12/15 13:59:32;;;;;;;;;;;21.20;54.50;;;;;;4460017;32;19966;-73
2022/12/15 14:01:59;;;;;;;;;;;21.20;54.50;;;;;;4461034;32;19982;-74
2022/12/15 14:04:25;;;;;;;;;;;21.20;54.50;;;;;;4460912;32;19973;-74
2022/12/15 14:06:53;;;;;;;;;;;21.20;54.60;;;;;;4461076;32;20351;-74
2022/12/15 14:09:34;;;;;;;;;;;21.10;54.60;;;;;;4446192;32;19989;-74
2022/12/15 14:12:01;;;;;;;;;;;21.10;54.70;;;;;;4456425;32;20000;-76
2022/12/15 14:14:28;;;;;;;;;;;21.10;54.90;;;;;;4445607;32;20032;-76
2022/12/15 14:16:56;;;;;;;;;;;21.00;55.00;;;;;;4445822;32;20099;-75
2022/12/15 14:19:22;;;;;;;;;;;21.00;55.10;;;;;;4459617;32;20028;-79
2022/12/15 14:21:49;;;;;;;;;;;21.00;55.20;;;;;;4458165;32;20387;-74
2022/12/15 14:24:21;;;;;;;;;;;21.00;55.10;;;;;;4458588;32;19985;-74
2022/12/15 14:26:51;;;;;;;;;;;21.10;55.10;;;;;;4457240;32;19990;-75
2022/12/15 14:29:17;;;;;;;;;;;21.10;55.10;;;;;;4457816;32;20064;-75
2022/12/15 14:31:45;;;;;;;;;;;21.10;55.10;;;;;;4455265;32;19974;-75
2022/12/15 14:34:26;;;;;;;;;;;21.20;55.10;;;;;;4434097;32;20296;-75
2022/12/15 14:36:53;;;;;;;;;;;21.20;55.10;;;;;;4451235;32;20576;-77
2022/12/15 14:39:24;;;;;;;;;;;21.20;55.00;;;;;;4457633;32;20063;-76
2022/12/15 14:41:51;;;;;;;;;;;21.20;55.00;;;;;;4458245;32;19974;-75
2022/12/15 14:44:19;;;;;;;;;;;21.20;55.00;;;;;;4459517;32;19982;-75
2022/12/15 14:46:46;;;;;;;;;;;21.20;55.00;;;;;;4459733;32;19990;-76
2022/12/15 14:49:17;;;;;;;;;;;21.20;55.10;;;;;;4458088;32;20052;-74
2022/12/15 14:51:46;;;;;;;;;;;21.20;55.10;;;;;;4457971;32;20476;-74
2022/12/15 14:54:31;;;;;;;;;;;21.20;55.00;;;;;;4456942;32;19982;-75
2022/12/15 14:57:35;;;;;;;;;;;21.20;55.10;;;;;;4458937;32;19978;-78
2022/12/15 15:00:22;;;;;;;;;;;21.30;55.10;;;;;;4371665;32;20047;-75
2022/12/15 15:02:49;;;;;;;;;;;21.30;55.20;;;;;;4371832;32;19988;-74
2022/12/15 15:05:25;;;;;;;;;;;21.20;55.10;;;;;;4424677;32;19978;-68
2022/12/15 15:07:55;;;;;;;;;;;21.30;55.20;;;;;;4445081;32;20279;-75
2022/12/15 15:10:22;;;;;;;;;;;21.20;55.10;;;;;;4461534;32;20045;-68
2022/12/15 15:12:48;;;;;;;;;;;21.20;55.00;;;;;;4460176;32;19986;-67
2022/12/15 15:15:18;;;;;;;;;;;21.20;54.80;;;;;;4462116;32;20025;-76
2022/12/15 15:17:48;;;;;;;;;;;21.20;54.50;;;;;;4460644;32;20038;-78
2022/12/15 15:20:16;;;;;;;;;;;21.20;54.30;;;;;;4461788;32;20107;-79
2022/12/15 15:22:44;;;;;;;;;;;21.20;54.20;;;;;;4446719;32;20509;-79
2022/12/15 15:25:25;;;;;;;;;;;21.20;54.20;;;;;;4460423;32;19990;-79
2022/12/15 15:27:50;;;;;;;;;;;21.20;54.30;;;;;;4460562;32;20384;-80
2022/12/15 15:30:21;;;;;;;;;;;21.10;54.30;;;;;;4460620;32;19967;-78
2022/12/15 15:32:51;;;;;;;;;;;21.10;54.40;;;;;;4461138;32;19990;-78
2022/12/15 15:35:29;;;;;;;;;;;21.10;54.40;;;;;;4461010;32;19982;-78
2022/12/15 15:38:02;;;;;;;;;;;21.10;54.50;;;;;;4461120;32;20389;-77
2022/12/15 15:40:32;;;;;;;;;;;21.20;54.60;;;;;;4461951;32;19978;-78
2022/12/15 15:42:58;;;;;;;;;;;21.20;54.60;;;;;;4460498;32;19985;-76
2022/12/15 15:45:25;;;;;;;;;;;21.20;54.60;;;;;;4459458;32;20061;-79
2022/12/15 15:47:51;;;;;;;;;;;21.20;54.60;;;;;;4461347;32;20048;-78
2022/12/15 15:50:26;;;;;;;;;;;21.20;54.70;;;;;;4461496;32;20042;-78
2022/12/15 15:52:52;;;;;;;;;;;21.10;54.80;;;;;;4462443;32;20391;-76
2022/12/15 15:55:21;;;;;;;;;;;21.10;54.90;;;;;;4458723;32;20018;-75
2022/12/15 15:57:46;;;;;;;;;;;21.10;55.00;;;;;;4458597;32;19985;-77
2022/12/15 16:00:15;;;;;;;;;;;21.10;55.10;;;;;;4461400;32;19970;-76
2022/12/15 16:02:41;;;;;;;;;;;21.10;55.10;;;;;;4461047;32;20060;-78
2022/12/15 16:05:09;;;;;;;;;;;21.10;55.20;;;;;;4459040;32;19990;-76
2022/12/15 16:07:34;;;;;;;;;;;21.10;55.20;;;;;;4459069;32;20033;-75
2022/12/15 16:10:00;;;;;;;;;;;21.10;55.30;;;;;;4445741;32;20054;-75
2022/12/15 16:12:26;;;;;;;;;;;21.10;55.30;;;;;;4460284;32;20293;-75
2022/12/15 16:14:53;;;;;;;;;;;21.10;55.30;;;;;;4460223;32;19971;-75
2022/12/15 16:17:19;;;;;;;;;;;21.10;55.40;;;;;;4461245;32;20518;-75
2022/12/15 16:19:44;;;;;;;;;;;21.10;55.50;;;;;;4460888;32;20024;-75
2022/12/15 16:22:18;;;;;;;;;;;21.00;55.60;;;;;;4459348;32;19982;-75
2022/12/15 16:24:44;;;;;;;;;;;21.00;55.60;;;;;;4458464;32;20041;-75
2022/12/15 16:27:12;;;;;;;;;;;21.00;55.60;;;;;;4460272;32;20022;-75
2022/12/15 16:29:39;;;;;;;;;;;21.00;55.60;;;;;;4459670;32;20474;-75
2022/12/15 16:32:07;;;;;;;;;;;21.00;55.70;;;;;;4446664;32;20481;-75
2022/12/15 16:34:34;;;;;;;;;;;21.00;55.80;;;;;;4461121;32;20478;-76
2022/12/15 16:37:02;;;;;;;;;;;20.90;55.90;;;;;;4460764;32;20308;-76
2022/12/15 16:39:34;;;;;;;;;;;20.90;55.90;;;;;;4459051;32;20417;-77
2022/12/15 16:42:00;;;;;;;;;;;20.90;56.00;;;;;;4458219;32;19990;-77
2022/12/15 16:44:30;;;;;;;;;;;20.90;56.10;;;;;;4455749;32;20029;-79
2022/12/15 16:46:56;;;;;;;;;;;20.90;56.10;;;;;;4453753;32;20029;-77
2022/12/15 16:49:22;;;;;;;;;;;20.90;56.20;;;;;;4453153;32;20299;-77
2022/12/15 16:51:51;;;;;;;;;;;20.90;56.30;;;;;;4459171;32;19977;-77
2022/12/15 16:54:19;;;;;;;;;;;20.80;56.20;;;;;;4459882;32;20032;-76